createdAt,value
2023-01-23T00:00:01.467Z,1006.37
2023-01-23T00:01:01.446Z,1006.38
2023-01-23T00:02:01.417Z,1006.37
2023-01-23T00:03:01.413Z,1006.39
2023-01-23T00:04:01.506Z,1006.38
2023-01-23T00:05:01.384Z,1006.36
2023-01-23T00:06:01.361Z,1006.40
2023-01-23T00:07:01.345Z,1006.41
2023-01-23T00:08:01.332Z,1006.43
2023-01-23T00:09:01.302Z,1006.42
2023-01-23T00:10:01.313Z,1006.39
2023-01-23T00:11:01.421Z,1006.36
2023-01-23T00:12:01.257Z,1006.36
2023-01-23T00:13:01.250Z,1006.40
2023-01-23T00:14:01.237Z,1006.38
2023-01-23T00:15:01.221Z,1006.41
2023-01-23T00:16:01.443Z,1006.39
2023-01-23T00:17:01.186Z,1006.42
2023-01-23T00:18:01.207Z,1006.40
2023-01-23T00:19:01.175Z,1006.41
2023-01-23T00:20:01.154Z,1006.38
2023-01-23T00:21:01.124Z,1006.38
2023-01-23T00:22:01.113Z,1006.35
2023-01-23T00:23:01.324Z,1006.34
2023-01-23T00:24:01.086Z,1006.32
2023-01-23T00:25:01.071Z,1006.32
2023-01-23T00:26:01.264Z,1006.33
2023-01-23T00:27:01.179Z,1006.35
2023-01-23T00:28:01.031Z,1006.27
2023-01-23T00:29:01.021Z,1006.30
2023-01-23T00:30:00.989Z,1006.30
2023-01-23T00:31:01.092Z,1006.30
2023-01-23T00:32:01.001Z,1006.29
2023-01-23T00:33:00.952Z,1006.27
2023-01-23T00:34:00.940Z,1006.34
2023-01-23T00:35:00.922Z,1006.32
2023-01-23T00:36:00.915Z,1006.34
2023-01-23T00:37:00.890Z,1006.38
2023-01-23T00:38:00.901Z,1006.38
2023-01-23T00:39:00.867Z,1006.35
2023-01-23T00:40:00.855Z,1006.42
2023-01-23T00:41:00.834Z,1006.46
2023-01-23T00:42:00.825Z,1006.48
2023-01-23T00:43:00.920Z,1006.46
2023-01-23T00:44:00.806Z,1006.47
2023-01-23T00:45:00.977Z,1006.44
2023-01-23T00:46:00.790Z,1006.44
2023-01-23T00:47:00.756Z,1006.43
2023-01-23T00:48:00.731Z,1006.40
2023-01-23T00:49:00.716Z,1006.42
2023-01-23T00:50:00.709Z,1006.44
2023-01-23T00:51:00.715Z,1006.43
2023-01-23T00:52:00.675Z,1006.44
2023-01-23T00:53:00.648Z,1006.50
2023-01-23T00:54:00.634Z,1006.51
2023-01-23T00:55:00.631Z,1006.51
2023-01-23T00:56:00.628Z,1006.50
2023-01-23T00:57:00.596Z,1006.53
2023-01-23T00:58:00.581Z,1006.57
2023-01-23T00:59:00.678Z,1006.52
2023-01-23T01:00:00.563Z,1006.57
2023-01-23T01:01:00.557Z,1006.59
2023-01-23T01:02:00.800Z,1006.59
2023-01-23T01:03:00.556Z,1006.61
2023-01-23T01:04:00.489Z,1006.61
2023-01-23T01:05:00.471Z,1006.63
2023-01-23T01:06:00.467Z,1006.63
2023-01-23T01:07:00.435Z,1006.65
2023-01-23T01:08:00.430Z,1006.68
2023-01-23T01:09:00.428Z,1006.67
2023-01-23T01:10:00.408Z,1006.65
2023-01-23T01:11:00.393Z,1006.65
2023-01-23T01:12:00.382Z,1006.69
2023-01-23T01:13:00.358Z,1006.65
2023-01-23T01:14:00.348Z,1006.65
2023-01-23T01:15:00.460Z,1006.66
2023-01-23T01:16:00.576Z,1006.66
2023-01-23T01:17:00.299Z,1006.70
2023-01-23T01:18:00.287Z,1006.69
2023-01-23T01:19:00.273Z,1006.71
2023-01-23T01:20:00.253Z,1006.75
2023-01-23T01:21:00.244Z,1006.75
2023-01-23T01:22:00.421Z,1006.76
2023-01-23T01:23:00.239Z,1006.79
2023-01-23T01:24:00.184Z,1006.81
2023-01-23T01:25:00.183Z,1006.79
2023-01-23T01:26:00.176Z,1006.78
2023-01-23T01:27:00.162Z,1006.80
2023-01-23T01:28:00.132Z,1006.84
2023-01-23T01:29:00.119Z,1006.85
2023-01-23T01:30:00.154Z,1006.88
2023-01-23T01:31:00.303Z,1006.88
2023-01-23T01:32:00.255Z,1006.85
2023-01-23T01:33:00.101Z,1006.91
2023-01-23T01:34:00.058Z,1006.90
2023-01-23T01:35:00.042Z,1006.95
2023-01-23T01:36:00.017Z,1006.92
2023-01-23T01:37:00.003Z,1006.95
2023-01-23T01:37:59.989Z,1006.97
2023-01-23T01:39:00.194Z,1007.01
2023-01-23T01:39:59.964Z,1006.98
2023-01-23T01:40:59.933Z,1006.92
2023-01-23T01:41:59.933Z,1007.00
2023-01-23T01:42:59.915Z,1006.99
2023-01-23T01:43:59.907Z,1006.97
2023-01-23T01:44:59.895Z,1006.99
2023-01-23T01:45:59.876Z,1007.04
2023-01-23T01:47:00.000Z,1007.03
2023-01-23T01:47:59.836Z,1007.06
2023-01-23T01:48:59.819Z,1007.09
2023-01-23T01:49:59.808Z,1007.07
2023-01-23T01:50:59.795Z,1007.10
2023-01-23T01:51:59.788Z,1007.12
2023-01-23T01:52:59.751Z,1007.11
2023-01-23T01:53:59.777Z,1007.15
2023-01-23T01:54:59.737Z,1007.16
2023-01-23T01:55:59.726Z,1007.12
2023-01-23T01:56:59.713Z,1007.14
2023-01-23T01:57:59.690Z,1007.16
2023-01-23T01:58:59.673Z,1007.18
2023-01-23T01:59:59.657Z,1007.18
2023-01-23T02:00:59.703Z,1007.18
2023-01-23T02:01:59.664Z,1007.22
2023-01-23T02:02:59.718Z,1007.22
2023-01-23T02:03:59.587Z,1007.20
2023-01-23T02:04:59.579Z,1007.24
2023-01-23T02:05:59.570Z,1007.20
2023-01-23T02:06:59.542Z,1007.18
2023-01-23T02:07:59.768Z,1007.15
2023-01-23T02:08:59.515Z,1007.20
2023-01-23T02:09:59.533Z,1007.15
2023-01-23T02:10:59.519Z,1007.15
2023-01-23T02:11:59.485Z,1007.18
2023-01-23T02:12:59.472Z,1007.18
2023-01-23T02:13:59.441Z,1007.21
2023-01-23T02:14:59.423Z,1007.23
2023-01-23T02:15:59.433Z,1007.20
2023-01-23T02:16:59.403Z,1007.20
2023-01-23T02:17:59.396Z,1007.19
2023-01-23T02:18:59.487Z,1007.16
2023-01-23T02:19:59.352Z,1007.16
2023-01-23T02:20:59.342Z,1007.17
2023-01-23T02:21:59.318Z,1007.15
2023-01-23T02:22:59.323Z,1007.16
2023-01-23T02:23:59.312Z,1007.18
2023-01-23T02:24:59.278Z,1007.19
2023-01-23T02:25:59.271Z,1007.20
2023-01-23T02:26:59.246Z,1007.16
2023-01-23T02:27:59.429Z,1007.21
2023-01-23T02:28:59.262Z,1007.19
2023-01-23T02:29:59.196Z,1007.20
2023-01-23T02:30:59.257Z,1007.16
2023-01-23T02:31:59.188Z,1007.16
2023-01-23T02:32:59.171Z,1007.14
2023-01-23T02:33:59.148Z,1007.15
2023-01-23T02:34:59.259Z,1007.14
2023-01-23T02:35:59.138Z,1007.15
2023-01-23T02:36:59.110Z,1007.14
2023-01-23T02:37:59.081Z,1007.16
2023-01-23T02:38:59.103Z,1007.18
2023-01-23T02:39:59.063Z,1007.21
2023-01-23T02:40:59.043Z,1007.20
2023-01-23T02:41:59.016Z,1007.21
2023-01-23T02:42:59.023Z,1007.20
2023-01-23T02:43:58.985Z,1007.20
2023-01-23T02:44:58.993Z,1007.23
2023-01-23T02:45:58.973Z,1007.25
2023-01-23T02:46:58.931Z,1007.28
2023-01-23T02:47:58.941Z,1007.27
2023-01-23T02:48:58.915Z,1007.31
2023-01-23T02:49:58.928Z,1007.29
2023-01-23T02:50:59.065Z,1007.28
2023-01-23T02:51:58.896Z,1007.31
2023-01-23T02:52:58.855Z,1007.32
2023-01-23T02:53:58.856Z,1007.29
2023-01-23T02:54:59.029Z,1007.31
2023-01-23T02:55:58.838Z,1007.26
2023-01-23T02:56:58.808Z,1007.30
2023-01-23T02:57:58.791Z,1007.30
2023-01-23T02:58:58.771Z,1007.33
2023-01-23T02:59:58.749Z,1007.32
2023-01-23T03:00:58.772Z,1007.36
2023-01-23T03:01:58.738Z,1007.35
2023-01-23T03:02:58.713Z,1007.40
2023-01-23T03:03:58.688Z,1007.39
2023-01-23T03:04:58.668Z,1007.42
2023-01-23T03:05:58.651Z,1007.40
2023-01-23T03:06:58.743Z,1007.41
2023-01-23T03:07:58.633Z,1007.45
2023-01-23T03:08:58.605Z,1007.43
2023-01-23T03:09:58.581Z,1007.43
2023-01-23T03:10:58.563Z,1007.46
2023-01-23T03:11:58.574Z,1007.44
2023-01-23T03:12:58.530Z,1007.48
2023-01-23T03:13:58.539Z,1007.50
2023-01-23T03:14:58.538Z,1007.51
2023-01-23T03:15:58.575Z,1007.45
2023-01-23T03:16:58.501Z,1007.44
2023-01-23T03:17:58.516Z,1007.47
2023-01-23T03:18:58.491Z,1007.43
2023-01-23T03:19:58.432Z,1007.46
2023-01-23T03:20:58.443Z,1007.43
2023-01-23T03:21:58.614Z,1007.45
2023-01-23T03:22:58.743Z,1007.46
2023-01-23T03:23:58.374Z,1007.45
2023-01-23T03:24:58.362Z,1007.46
2023-01-23T03:25:58.402Z,1007.45
2023-01-23T03:26:58.343Z,1007.48
2023-01-23T03:27:58.357Z,1007.48
2023-01-23T03:28:58.327Z,1007.49
2023-01-23T03:29:58.326Z,1007.54
2023-01-23T03:30:58.321Z,1007.53
2023-01-23T03:31:58.266Z,1007.57
2023-01-23T03:32:58.242Z,1007.61
2023-01-23T03:33:58.240Z,1007.57
2023-01-23T03:34:58.232Z,1007.60
2023-01-23T03:35:58.214Z,1007.61
2023-01-23T03:36:58.207Z,1007.59
2023-01-23T03:37:58.172Z,1007.59
2023-01-23T03:38:58.283Z,1007.64
2023-01-23T03:39:58.175Z,1007.63
2023-01-23T03:40:58.129Z,1007.61
2023-01-23T03:41:58.122Z,1007.64
2023-01-23T03:42:58.103Z,1007.65
2023-01-23T03:43:58.112Z,1007.63
2023-01-23T03:44:58.090Z,1007.62
2023-01-23T03:45:58.131Z,1007.59
2023-01-23T03:46:58.081Z,1007.63
2023-01-23T03:47:58.048Z,1007.63
2023-01-23T03:48:58.091Z,1007.64
2023-01-23T03:49:58.000Z,1007.60
2023-01-23T03:50:58.074Z,1007.60
2023-01-23T03:51:57.952Z,1007.59
2023-01-23T03:52:57.952Z,1007.55
2023-01-23T03:53:57.939Z,1007.59
2023-01-23T03:54:58.035Z,1007.58
2023-01-23T03:55:57.909Z,1007.60
2023-01-23T03:56:57.907Z,1007.59
2023-01-23T03:57:57.874Z,1007.61
2023-01-23T03:58:57.844Z,1007.65
2023-01-23T03:59:57.838Z,1007.66
2023-01-23T04:00:57.900Z,1007.64
2023-01-23T04:01:57.811Z,1007.66
2023-01-23T04:02:58.090Z,1007.63
2023-01-23T04:03:57.801Z,1007.66
2023-01-23T04:04:57.764Z,1007.66
2023-01-23T04:05:57.768Z,1007.69
2023-01-23T04:06:57.961Z,1007.65
2023-01-23T04:07:57.962Z,1007.65
2023-01-23T04:08:57.732Z,1007.64
2023-01-23T04:09:57.734Z,1007.63
2023-01-23T04:10:57.980Z,1007.63
2023-01-23T04:11:57.680Z,1007.64
2023-01-23T04:12:57.679Z,1007.62
2023-01-23T04:13:57.657Z,1007.62
2023-01-23T04:14:57.677Z,1007.56
2023-01-23T04:15:57.626Z,1007.58
2023-01-23T04:16:57.588Z,1007.58
2023-01-23T04:17:57.603Z,1007.58
2023-01-23T04:18:57.573Z,1007.56
2023-01-23T04:19:57.557Z,1007.55
2023-01-23T04:20:57.555Z,1007.57
2023-01-23T04:21:57.553Z,1007.58
2023-01-23T04:22:57.516Z,1007.56
2023-01-23T04:23:57.511Z,1007.60
2023-01-23T04:24:57.497Z,1007.54
2023-01-23T04:25:57.488Z,1007.58
2023-01-23T04:26:57.580Z,1007.57
2023-01-23T04:27:57.447Z,1007.59
2023-01-23T04:28:57.429Z,1007.62
2023-01-23T04:29:57.400Z,1007.56
2023-01-23T04:30:58.776Z,1007.57
2023-01-23T04:31:57.403Z,1007.58
2023-01-23T04:32:57.585Z,1007.64
2023-01-23T04:33:57.365Z,1007.64
2023-01-23T04:34:57.336Z,1007.64
2023-01-23T04:35:57.336Z,1007.63
2023-01-23T04:36:57.322Z,1007.63
2023-01-23T04:37:57.282Z,1007.56
2023-01-23T04:38:57.278Z,1007.59
2023-01-23T04:39:57.269Z,1007.56
2023-01-23T04:40:57.467Z,1007.63
2023-01-23T04:41:57.229Z,1007.64
2023-01-23T04:42:57.377Z,1007.65
2023-01-23T04:43:57.252Z,1007.67
2023-01-23T04:44:57.187Z,1007.70
2023-01-23T04:45:57.243Z,1007.72
2023-01-23T04:46:57.189Z,1007.76
2023-01-23T04:47:57.142Z,1007.79
2023-01-23T04:48:57.124Z,1007.80
2023-01-23T04:49:57.112Z,1007.80
2023-01-23T04:50:57.148Z,1007.84
2023-01-23T04:51:57.085Z,1007.81
2023-01-23T04:52:57.256Z,1007.82
2023-01-23T04:53:57.051Z,1007.90
2023-01-23T04:54:57.244Z,1007.88
2023-01-23T04:55:57.023Z,1007.91
2023-01-23T04:56:57.014Z,1007.89
2023-01-23T04:57:56.989Z,1007.89
2023-01-23T04:58:57.178Z,1007.84
2023-01-23T04:59:58.502Z,1007.84
2023-01-23T05:00:56.964Z,1007.84
2023-01-23T05:01:56.981Z,1007.84
2023-01-23T05:02:57.130Z,1007.88
2023-01-23T05:03:56.923Z,1007.86
2023-01-23T05:04:56.918Z,1007.89
2023-01-23T05:05:56.872Z,1007.87
2023-01-23T05:06:56.854Z,1007.91
2023-01-23T05:07:56.844Z,1007.98
2023-01-23T05:08:56.885Z,1007.96
2023-01-23T05:09:56.842Z,1008.02
2023-01-23T05:10:56.792Z,1007.97
2023-01-23T05:11:56.785Z,1008.00
2023-01-23T05:12:56.789Z,1008.00
2023-01-23T05:13:56.773Z,1008.04
2023-01-23T05:14:56.879Z,1008.03
2023-01-23T05:15:56.816Z,1007.99
2023-01-23T05:16:56.721Z,1007.99
2023-01-23T05:17:56.689Z,1008.01
2023-01-23T05:18:56.704Z,1008.01
2023-01-23T05:19:56.688Z,1008.02
2023-01-23T05:20:56.659Z,1008.01
2023-01-23T05:21:56.657Z,1008.05
2023-01-23T05:22:58.479Z,1008.03
2023-01-23T05:23:56.613Z,1008.07
2023-01-23T05:24:56.599Z,1008.04
2023-01-23T05:25:56.581Z,1008.04
2023-01-23T05:26:56.565Z,1008.07
2023-01-23T05:27:56.570Z,1008.05
2023-01-23T05:28:56.533Z,1008.10
2023-01-23T05:29:56.537Z,1008.07
2023-01-23T05:30:56.737Z,1008.08
2023-01-23T05:31:56.516Z,1008.06
2023-01-23T05:32:56.688Z,1008.07
2023-01-23T05:33:56.474Z,1008.06
2023-01-23T05:34:56.453Z,1008.10
2023-01-23T05:35:56.432Z,1008.14
2023-01-23T05:36:56.417Z,1008.09
2023-01-23T05:37:56.604Z,1008.11
2023-01-23T05:38:56.423Z,1008.11
2023-01-23T05:39:56.380Z,1008.09
2023-01-23T05:40:56.356Z,1008.09
2023-01-23T05:41:56.363Z,1008.09
2023-01-23T05:42:56.537Z,1008.12
2023-01-23T05:43:56.329Z,1008.11
2023-01-23T05:44:56.342Z,1008.15
2023-01-23T05:45:56.311Z,1008.10
2023-01-23T05:46:56.399Z,1008.11
2023-01-23T05:47:56.495Z,1008.15
2023-01-23T05:48:56.239Z,1008.08
2023-01-23T05:49:56.242Z,1008.08
2023-01-23T05:50:56.252Z,1008.09
2023-01-23T05:51:56.221Z,1008.12
2023-01-23T05:52:56.210Z,1008.13
2023-01-23T05:53:56.167Z,1008.13
2023-01-23T05:54:56.186Z,1008.17
2023-01-23T05:55:56.143Z,1008.18
2023-01-23T05:56:56.147Z,1008.21
2023-01-23T05:57:56.126Z,1008.28
2023-01-23T05:58:56.084Z,1008.27
2023-01-23T05:59:56.077Z,1008.28
2023-01-23T06:00:56.069Z,1008.30
2023-01-23T06:01:56.062Z,1008.30
2023-01-23T06:02:56.191Z,1008.33
2023-01-23T06:03:56.010Z,1008.33
2023-01-23T06:04:56.003Z,1008.36
2023-01-23T06:05:55.985Z,1008.36
2023-01-23T06:06:55.971Z,1008.36
2023-01-23T06:07:55.940Z,1008.37
2023-01-23T06:08:55.939Z,1008.38
2023-01-23T06:09:55.947Z,1008.40
2023-01-23T06:10:55.932Z,1008.36
2023-01-23T06:11:55.893Z,1008.39
2023-01-23T06:12:55.897Z,1008.42
2023-01-23T06:13:55.905Z,1008.41
2023-01-23T06:14:56.328Z,1008.43
2023-01-23T06:15:55.878Z,1008.44
2023-01-23T06:16:55.847Z,1008.39
2023-01-23T06:17:55.895Z,1008.41
2023-01-23T06:18:55.953Z,1008.47
2023-01-23T06:19:55.772Z,1008.45
2023-01-23T06:20:55.768Z,1008.48
2023-01-23T06:21:55.753Z,1008.46
2023-01-23T06:22:55.778Z,1008.48
2023-01-23T06:23:55.723Z,1008.50
2023-01-23T06:24:55.699Z,1008.48
2023-01-23T06:25:55.669Z,1008.49
2023-01-23T06:26:55.675Z,1008.51
2023-01-23T06:27:55.661Z,1008.56
2023-01-23T06:28:55.651Z,1008.53
2023-01-23T06:29:55.617Z,1008.51
2023-01-23T06:30:56.006Z,1008.54
2023-01-23T06:31:55.633Z,1008.58
2023-01-23T06:32:55.583Z,1008.63
2023-01-23T06:33:55.576Z,1008.61
2023-01-23T06:34:55.692Z,1008.61
2023-01-23T06:35:55.545Z,1008.69
2023-01-23T06:36:55.550Z,1008.73
2023-01-23T06:37:55.529Z,1008.76
2023-01-23T06:38:55.488Z,1008.81
2023-01-23T06:39:55.488Z,1008.82
2023-01-23T06:40:55.690Z,1008.85
2023-01-23T06:41:55.468Z,1008.84
2023-01-23T06:42:55.435Z,1008.81
2023-01-23T06:43:55.483Z,1008.86
2023-01-23T06:44:55.407Z,1008.84
2023-01-23T06:45:55.379Z,1008.86
2023-01-23T06:46:55.370Z,1008.89
2023-01-23T06:47:55.346Z,1008.87
2023-01-23T06:48:55.561Z,1008.89
2023-01-23T06:49:55.310Z,1008.91
2023-01-23T06:50:55.513Z,1008.96
2023-01-23T06:51:55.340Z,1009.01
2023-01-23T06:52:55.348Z,1009.05
2023-01-23T06:53:55.270Z,1009.05
2023-01-23T06:54:55.250Z,1009.08
2023-01-23T06:55:55.254Z,1009.03
2023-01-23T06:56:55.238Z,1009.02
2023-01-23T06:57:55.200Z,1009.02
2023-01-23T06:58:55.201Z,1009.05
2023-01-23T06:59:55.387Z,1009.06
2023-01-23T07:00:55.174Z,1009.09
2023-01-23T07:01:55.201Z,1009.11
2023-01-23T07:02:55.157Z,1009.08
2023-01-23T07:03:55.115Z,1009.11
2023-01-23T07:04:55.095Z,1009.13
2023-01-23T07:05:55.065Z,1009.15
2023-01-23T07:06:55.485Z,1009.19
2023-01-23T07:07:55.069Z,1009.18
2023-01-23T07:08:55.041Z,1009.19
2023-01-23T07:09:55.019Z,1009.19
2023-01-23T07:10:55.008Z,1009.16
2023-01-23T07:11:55.007Z,1009.21
2023-01-23T07:12:55.016Z,1009.18
2023-01-23T07:13:54.974Z,1009.22
2023-01-23T07:14:54.947Z,1009.25
2023-01-23T07:15:54.991Z,1009.25
2023-01-23T07:16:54.901Z,1009.29
2023-01-23T07:17:54.908Z,1009.29
2023-01-23T07:18:54.877Z,1009.25
2023-01-23T07:19:54.870Z,1009.29
2023-01-23T07:20:54.875Z,1009.29
2023-01-23T07:21:54.861Z,1009.29
2023-01-23T07:22:54.939Z,1009.32
2023-01-23T07:23:54.826Z,1009.29
2023-01-23T07:24:54.780Z,1009.31
2023-01-23T07:25:54.998Z,1009.33
2023-01-23T07:26:54.761Z,1009.35
2023-01-23T07:27:54.755Z,1009.35
2023-01-23T07:28:54.729Z,1009.33
2023-01-23T07:29:54.723Z,1009.34
2023-01-23T07:30:55.005Z,1009.36
2023-01-23T07:31:55.013Z,1009.35
2023-01-23T07:32:54.665Z,1009.38
2023-01-23T07:33:54.673Z,1009.37
2023-01-23T07:34:54.644Z,1009.34
2023-01-23T07:35:54.645Z,1009.38
2023-01-23T07:36:54.609Z,1009.41
2023-01-23T07:37:54.585Z,1009.44
2023-01-23T07:38:54.700Z,1009.47
2023-01-23T07:39:54.566Z,1009.48
2023-01-23T07:40:54.556Z,1009.52
2023-01-23T07:41:54.541Z,1009.48
2023-01-23T07:42:54.523Z,1009.48
2023-01-23T07:43:54.519Z,1009.53
2023-01-23T07:44:54.518Z,1009.55
2023-01-23T07:45:54.530Z,1009.57
2023-01-23T07:46:54.482Z,1009.54
2023-01-23T07:47:54.455Z,1009.53
2023-01-23T07:48:54.448Z,1009.53
2023-01-23T07:49:54.400Z,1009.54
2023-01-23T07:50:54.448Z,1009.52
2023-01-23T07:51:54.376Z,1009.53
2023-01-23T07:52:56.797Z,1009.55
2023-01-23T07:53:54.356Z,1009.54
2023-01-23T07:54:54.649Z,1009.58
2023-01-23T07:55:54.381Z,1009.60
2023-01-23T07:56:54.309Z,1009.61
2023-01-23T07:57:54.276Z,1009.68
2023-01-23T07:58:57.268Z,1009.67
2023-01-23T07:59:54.255Z,1009.67
2023-01-23T08:00:54.305Z,1009.65
2023-01-23T08:01:54.439Z,1009.68
2023-01-23T08:02:54.243Z,1009.62
2023-01-23T08:03:54.456Z,1009.59
2023-01-23T08:04:54.207Z,1009.69
2023-01-23T08:05:54.191Z,1009.65
2023-01-23T08:06:54.165Z,1009.65
2023-01-23T08:08:11.367Z,1009.64
2023-01-23T08:08:54.122Z,1009.63
2023-01-23T08:09:54.104Z,1009.59
2023-01-23T08:10:54.288Z,1009.64
2023-01-23T08:11:54.314Z,1009.65
2023-01-23T08:12:54.054Z,1009.66
2023-01-23T08:13:54.048Z,1009.66
2023-01-23T08:14:54.028Z,1009.68
2023-01-23T08:15:54.060Z,1009.67
2023-01-23T08:16:54.066Z,1009.73
2023-01-23T08:17:53.989Z,1009.73
2023-01-23T08:18:53.970Z,1009.73
2023-01-23T08:19:53.951Z,1009.74
2023-01-23T08:20:53.933Z,1009.76
2023-01-23T08:21:53.940Z,1009.80
2023-01-23T08:22:53.901Z,1009.76
2023-01-23T08:23:53.906Z,1009.73
2023-01-23T08:24:53.883Z,1009.76
2023-01-23T08:25:53.858Z,1009.81
2023-01-23T08:26:53.973Z,1009.79
2023-01-23T08:27:53.825Z,1009.83
2023-01-23T08:28:54.002Z,1009.83
2023-01-23T08:29:53.801Z,1009.79
2023-01-23T08:30:53.823Z,1009.83
2023-01-23T08:31:53.820Z,1009.78
2023-01-23T08:32:53.800Z,1009.84
2023-01-23T08:33:53.740Z,1009.84
2023-01-23T08:34:53.735Z,1009.84
2023-01-23T08:35:53.716Z,1009.84
2023-01-23T08:36:53.703Z,1009.84
2023-01-23T08:37:53.686Z,1009.84
2023-01-23T08:38:53.874Z,1009.83
2023-01-23T08:39:53.655Z,1009.80
2023-01-23T08:40:53.627Z,1009.78
2023-01-23T08:41:53.610Z,1009.84
2023-01-23T08:42:54.282Z,1009.80
2023-01-23T08:43:53.612Z,1009.83
2023-01-23T08:44:53.570Z,1009.81
2023-01-23T08:45:53.801Z,1009.84
2023-01-23T08:46:53.546Z,1009.79
2023-01-23T08:47:53.727Z,1009.84
2023-01-23T08:48:53.513Z,1009.83
2023-01-23T08:49:53.497Z,1009.85
2023-01-23T08:50:53.493Z,1009.87
2023-01-23T08:51:53.481Z,1009.89
2023-01-23T08:52:53.448Z,1009.89
2023-01-23T08:53:53.493Z,1009.92
2023-01-23T08:54:53.426Z,1009.93
2023-01-23T08:55:53.411Z,1009.90
2023-01-23T08:56:53.383Z,1009.95
2023-01-23T08:57:53.574Z,1009.92
2023-01-23T08:58:53.467Z,1009.94
2023-01-23T08:59:53.341Z,1009.90
2023-01-23T09:00:53.352Z,1009.91
2023-01-23T09:01:53.408Z,1009.96
2023-01-23T09:02:53.303Z,1009.94
2023-01-23T09:03:53.303Z,1009.94
2023-01-23T09:04:53.281Z,1009.93
2023-01-23T09:05:53.253Z,1009.95
2023-01-23T09:06:53.251Z,1009.91
2023-01-23T09:07:53.253Z,1009.89
2023-01-23T09:08:53.209Z,1009.94
2023-01-23T09:09:53.181Z,1009.95
2023-01-23T09:10:53.229Z,1009.92
2023-01-23T09:11:53.179Z,1009.91
2023-01-23T09:12:53.155Z,1009.95
2023-01-23T09:13:54.155Z,1009.92
2023-01-23T09:14:53.243Z,1009.93
2023-01-23T09:15:53.176Z,1009.94
2023-01-23T09:16:53.252Z,1009.93
2023-01-23T09:17:53.134Z,1009.93
2023-01-23T09:18:53.099Z,1009.91
2023-01-23T09:19:53.055Z,1009.93
2023-01-23T09:20:53.051Z,1009.89
2023-01-23T09:21:53.052Z,1009.98
2023-01-23T09:22:53.033Z,1009.98
2023-01-23T09:23:52.986Z,1009.93
2023-01-23T09:24:53.038Z,1009.93
2023-01-23T09:25:52.978Z,1009.97
2023-01-23T09:26:52.970Z,1009.93
2023-01-23T09:27:52.925Z,1009.95
2023-01-23T09:28:52.937Z,1009.94
2023-01-23T09:29:52.926Z,1009.99
2023-01-23T09:30:53.066Z,1009.98
2023-01-23T09:31:52.947Z,1009.99
2023-01-23T09:32:52.851Z,1009.94
2023-01-23T09:33:52.834Z,1009.97
2023-01-23T09:34:52.824Z,1009.95
2023-01-23T09:35:52.855Z,1009.93
2023-01-23T09:36:52.808Z,1009.99
2023-01-23T09:37:58.521Z,1010.00
2023-01-23T09:38:52.762Z,1009.97
2023-01-23T09:39:52.779Z,1010.00
2023-01-23T09:40:52.744Z,1010.03
2023-01-23T09:41:52.742Z,1010.02
2023-01-23T09:42:52.722Z,1009.98
2023-01-23T09:43:52.717Z,1009.98
2023-01-23T09:44:52.685Z,1010.01
2023-01-23T09:45:52.792Z,1009.98
2023-01-23T09:46:52.761Z,1010.00
2023-01-23T09:47:53.433Z,1009.98
2023-01-23T09:48:52.618Z,1010.01
2023-01-23T09:49:52.594Z,1010.00
2023-01-23T09:50:52.641Z,1010.03
2023-01-23T09:51:52.576Z,1009.96
2023-01-23T09:52:52.548Z,1009.96
2023-01-23T09:53:52.540Z,1009.98
2023-01-23T09:54:52.537Z,1009.98
2023-01-23T09:55:52.515Z,1009.97
2023-01-23T09:56:52.518Z,1009.97
2023-01-23T09:57:52.472Z,1010.01
2023-01-23T09:58:52.472Z,1009.99
2023-01-23T10:00:00.503Z,1010.01
2023-01-23T10:00:52.517Z,1010.01
2023-01-23T10:01:52.432Z,1010.00
2023-01-23T10:02:52.573Z,1009.99
2023-01-23T10:03:52.396Z,1010.01
2023-01-23T10:04:52.389Z,1010.02
2023-01-23T10:05:52.365Z,1009.98
2023-01-23T10:06:52.357Z,1010.03
2023-01-23T10:07:52.346Z,1010.04
2023-01-23T10:08:52.322Z,1010.04
2023-01-23T10:09:52.312Z,1010.06
2023-01-23T10:10:52.323Z,1010.03
2023-01-23T10:11:52.268Z,1010.07
2023-01-23T10:12:52.275Z,1010.05
2023-01-23T10:13:52.256Z,1010.07
2023-01-23T10:14:52.235Z,1010.04
2023-01-23T10:15:53.763Z,1010.01
2023-01-23T10:16:52.253Z,1010.00
2023-01-23T10:17:52.176Z,1009.98
2023-01-23T10:18:52.296Z,1010.02
2023-01-23T10:19:52.226Z,1010.01
2023-01-23T10:20:52.157Z,1009.96
2023-01-23T10:21:52.124Z,1009.96
2023-01-23T10:22:52.130Z,1010.02
2023-01-23T10:23:52.303Z,1009.92
2023-01-23T10:24:52.117Z,1009.92
2023-01-23T10:25:52.121Z,1009.94
2023-01-23T10:26:52.061Z,1009.96
2023-01-23T10:27:52.048Z,1009.94
2023-01-23T10:28:52.228Z,1009.93
2023-01-23T10:29:52.050Z,1009.94
2023-01-23T10:30:52.336Z,1009.98
2023-01-23T10:31:52.174Z,1009.97
2023-01-23T10:32:52.180Z,1009.96
2023-01-23T10:33:51.961Z,1010.02
2023-01-23T10:34:52.051Z,1010.02
2023-01-23T10:35:51.952Z,1010.03
2023-01-23T10:36:54.515Z,1010.02
2023-01-23T10:37:51.921Z,1010.04
2023-01-23T10:38:51.933Z,1010.07
2023-01-23T10:39:52.086Z,1010.08
2023-01-23T10:40:51.869Z,1010.06
2023-01-23T10:42:01.480Z,1010.08
2023-01-23T10:42:51.852Z,1010.10
2023-01-23T10:43:51.831Z,1010.06
2023-01-23T10:44:51.812Z,1010.08
2023-01-23T10:45:51.816Z,1010.07
2023-01-23T10:46:53.954Z,1010.03
2023-01-23T10:47:55.215Z,1010.01
2023-01-23T10:48:51.728Z,1010.00
2023-01-23T10:49:51.721Z,1010.01
2023-01-23T10:50:51.841Z,1010.03
2023-01-23T10:51:51.908Z,1010.02
2023-01-23T10:52:51.679Z,1010.02
2023-01-23T10:53:51.661Z,1010.04
2023-01-23T10:54:51.861Z,1010.07
2023-01-23T10:55:51.641Z,1010.04
2023-01-23T10:56:51.829Z,1010.05
2023-01-23T10:57:51.644Z,1010.00
2023-01-23T10:58:51.580Z,1009.99
2023-01-23T10:59:51.586Z,1009.98
2023-01-23T11:00:51.581Z,1010.02
2023-01-23T11:01:57.405Z,1010.05
2023-01-23T11:02:51.608Z,1010.06
2023-01-23T11:03:51.516Z,1010.08
2023-01-23T11:04:51.526Z,1010.07
2023-01-23T11:05:53.218Z,1010.04
2023-01-23T11:06:51.582Z,1010.05
2023-01-23T11:07:51.470Z,1010.04
2023-01-23T11:08:51.476Z,1010.02
2023-01-23T11:09:51.436Z,1010.02
2023-01-23T11:10:51.415Z,1009.96
2023-01-23T11:11:51.415Z,1009.92
2023-01-23T11:12:51.403Z,1009.98
2023-01-23T11:13:51.372Z,1010.01
2023-01-23T11:14:51.377Z,1010.00
2023-01-23T11:15:51.389Z,1009.99
2023-01-23T11:16:51.320Z,1009.99
2023-01-23T11:17:51.323Z,1010.00
2023-01-23T11:18:51.321Z,1010.04
2023-01-23T11:19:51.295Z,1010.07
2023-01-23T11:20:51.252Z,1010.05
2023-01-23T11:21:51.266Z,1010.09
2023-01-23T11:22:51.333Z,1010.11
2023-01-23T11:23:51.231Z,1010.13
2023-01-23T11:24:51.213Z,1010.12
2023-01-23T11:25:51.190Z,1010.09
2023-01-23T11:26:51.166Z,1010.15
2023-01-23T11:27:51.160Z,1010.14
2023-01-23T11:28:51.168Z,1010.16
2023-01-23T11:29:51.127Z,1010.17
2023-01-23T11:30:54.243Z,1010.16
2023-01-23T11:31:51.275Z,1010.12
2023-01-23T11:32:51.098Z,1010.16
2023-01-23T11:33:51.080Z,1010.14
2023-01-23T11:34:51.047Z,1010.12
2023-01-23T11:35:51.050Z,1010.08
2023-01-23T11:36:51.024Z,1010.08
2023-01-23T11:37:51.011Z,1010.08
2023-01-23T11:38:52.703Z,1010.06
2023-01-23T11:39:50.971Z,1010.01
2023-01-23T11:40:51.149Z,1010.00
2023-01-23T11:41:50.963Z,1010.02
2023-01-23T11:42:51.145Z,1009.96
2023-01-23T11:43:50.969Z,1009.96
2023-01-23T11:44:50.925Z,1009.93
2023-01-23T11:45:51.153Z,1009.89
2023-01-23T11:46:51.108Z,1009.90
2023-01-23T11:47:50.893Z,1009.87
2023-01-23T11:48:50.853Z,1009.89
2023-01-23T11:49:51.472Z,1009.82
2023-01-23T11:50:55.443Z,1009.80
2023-01-23T11:51:50.795Z,1009.83
2023-01-23T11:52:50.803Z,1009.80
2023-01-23T11:53:50.828Z,1009.80
2023-01-23T11:54:50.883Z,1009.80
2023-01-23T11:55:50.759Z,1009.78
2023-01-23T11:56:50.734Z,1009.77
2023-01-23T11:57:50.933Z,1009.78
2023-01-23T11:58:50.725Z,1009.75
2023-01-23T11:59:50.753Z,1009.73
2023-01-23T12:00:50.691Z,1009.76
2023-01-23T12:02:02.430Z,1009.78
2023-01-23T12:02:50.655Z,1009.78
2023-01-23T12:03:50.691Z,1009.76
2023-01-23T12:04:50.845Z,1009.74